Time;durP1;ratioP1;P1;durP2;ratioP2;P2;SDS_P1;SDS_P2;PMS_P1;PMS_P2;Temp;Humidity;BMP_temperature;BMP_pressure;BME280_temperature;BME280_humidity;BME280_pressure;Samples;Min_cycle;Max_cycle;Signal;HPM_P1;HPM_P2
2023/10/09 00:02:14;;;;;;;44.17;19.67;;;20.60;99.90;;;;;;4917294;29;20032;-82
2023/10/09 00:04:46;;;;;;;47.00;21.08;;;20.50;99.90;;;;;;4918109;29;20044;-82
2023/10/09 00:07:16;;;;;;;35.90;19.45;;;20.50;99.90;;;;;;4900918;29;20031;-82
2023/10/09 00:09:48;;;;;;;34.42;19.73;;;20.40;99.90;;;;;;4916992;29;20048;-82
2023/10/09 00:12:25;;;;;;;45.72;19.85;;;20.40;99.90;;;;;;4918288;29;20032;-82
2023/10/09 00:14:55;;;;;;;41.85;18.75;;;20.40;99.90;;;;;;4916707;29;20028;-81
2023/10/09 00:17:23;;;;;;;50.05;18.30;;;20.40;99.90;;;;;;4917688;29;20031;-82
2023/10/09 00:19:59;;;;;;;40.50;19.55;;;20.30;99.90;;;;;;4917651;29;20127;-82
2023/10/09 00:22:26;;;;;;;38.22;19.13;;;20.20;99.90;;;;;;4935159;29;20423;-82
2023/10/09 00:25:12;;;;;;;35.50;19.10;;;20.20;99.90;;;;;;4934296;29;20076;-82
2023/10/09 00:27:42;;;;;;;39.03;19.15;;;20.10;99.90;;;;;;4933798;29;20445;-83
2023/10/09 00:30:17;;;;;;;42.65;19.92;;;20.00;99.90;;;;;;4932481;29;20513;-82
2023/10/09 00:33:07;;;;;;;44.38;20.00;;;20.00;99.90;;;;;;4932625;29;20438;-82
2023/10/09 00:41:35;;;;;;;49.65;23.05;;;20.10;99.90;;;;;;4935089;29;20032;-82
2023/10/09 00:43:43;;;;;;;48.83;21.45;;;20.10;99.90;;;;;;4918281;29;20058;-82
2023/10/09 00:48:40;;;;;;;43.15;20.88;;;20.10;99.90;;;;;;4933354;29;20394;-82
2023/10/09 00:51:18;;;;;;;48.88;21.15;;;20.10;99.90;;;;;;4932286;29;20516;-81
2023/10/09 00:53:59;;;;;;;45.10;21.98;;;20.20;99.90;;;;;;4931959;29;20493;-82
2023/10/09 00:59:08;;;;;;;44.92;20.58;;;20.20;99.90;;;;;;4935896;29;20059;-82
2023/10/09 01:01:40;;;;;;;44.55;21.85;;;20.10;99.90;;;;;;4922139;29;20052;-82
2023/10/09 01:04:10;;;;;;;40.78;20.15;;;20.00;99.90;;;;;;4921472;29;20438;-81
2023/10/09 01:06:45;;;;;;;39.70;19.50;;;19.90;99.90;;;;;;4905417;29;20035;-82
2023/10/09 01:09:14;;;;;;;44.50;20.77;;;19.80;99.90;;;;;;4914189;29;20028;-82
2023/10/09 01:14:26;;;;;;;45.42;20.10;;;19.70;99.90;;;;;;4936211;29;20068;-82
2023/10/09 01:16:54;;;;;;;44.78;20.70;;;19.60;99.90;;;;;;4920055;29;20032;-81
2023/10/09 01:19:24;;;;;;;45.15;20.95;;;19.60;99.90;;;;;;4916408;29;20031;-82
2023/10/09 01:22:12;;;;;;;50.75;22.05;;;19.50;99.90;;;;;;4900923;29;20458;-80
2023/10/09 01:24:40;;;;;;;44.05;20.67;;;19.50;99.90;;;;;;4916671;29;20538;-82
2023/10/09 01:27:14;;;;;;;51.78;21.80;;;19.40;99.90;;;;;;4885090;29;20024;-82
2023/10/09 01:29:41;;;;;;;42.97;21.45;;;19.30;99.90;;;;;;4908230;29;20032;-83
2023/10/09 01:32:16;;;;;;;50.38;21.70;;;19.30;99.90;;;;;;4919489;29;20024;-82
2023/10/09 01:34:45;;;;;;;43.65;21.02;;;19.20;99.90;;;;;;4919727;29;20043;-82
2023/10/09 01:37:22;;;;;;;43.20;20.33;;;19.10;99.90;;;;;;4935620;29;20056;-82
2023/10/09 01:39:51;;;;;;;46.30;21.50;;;19.10;99.90;;;;;;4918251;29;20032;-82
2023/10/09 01:42:34;;;;;;;37.95;20.50;;;19.00;99.90;;;;;;4917400;29;20029;-82
2023/10/09 01:47:39;;;;;;;47.72;21.17;;;18.90;99.90;;;;;;4901402;29;20060;-83
2023/10/09 01:50:20;;;;;;;37.08;18.13;;;18.90;99.90;;;;;;4903001;29;20032;-82
2023/10/09 01:52:47;;;;;;;44.15;20.17;;;18.90;99.90;;;;;;4919901;29;20024;-81
2023/10/09 01:57:58;;;;;;;51.08;21.40;;;18.80;99.90;;;;;;4935300;29;20060;-82
2023/10/09 02:00:29;;;;;;;36.70;19.70;;;18.90;99.90;;;;;;4903174;29;20028;-82
2023/10/09 02:03:02;;;;;;;34.20;18.35;;;18.90;99.90;;;;;;4921010;29;20036;-81
2023/10/09 02:05:33;;;;;;;39.83;19.02;;;18.80;99.90;;;;;;4920613;29;20044;-82
2023/10/09 02:08:02;;;;;;;40.75;21.05;;;18.70;99.90;;;;;;4903779;29;20032;-82
2023/10/09 02:12:58;;;;;;;49.40;20.83;;;18.80;99.90;;;;;;4919581;29;20130;-82
2023/10/09 02:18:26;;;;;;;40.13;19.42;;;18.80;99.90;;;;;;4918871;29;20111;-82
2023/10/09 02:23:39;;;;;;;52.60;20.67;;;18.70;99.90;;;;;;4918851;29;20409;-82
2023/10/09 02:26:10;;;;;;;43.25;21.50;;;18.70;99.90;;;;;;4935107;29;20035;-82
2023/10/09 02:28:37;;;;;;;42.83;20.65;;;18.70;99.90;;;;;;4918918;29;20119;-82
2023/10/09 02:31:12;;;;;;;37.75;18.88;;;18.70;99.90;;;;;;4920224;29;20035;-82
2023/10/09 02:33:42;;;;;;;34.25;17.33;;;18.60;99.90;;;;;;4904020;29;20028;-83
2023/10/09 02:36:11;;;;;;;39.38;19.25;;;18.50;99.90;;;;;;4904250;29;20035;-82
2023/10/09 02:38:42;;;;;;;39.70;19.08;;;18.40;99.90;;;;;;4918507;29;20040;-82
2023/10/09 02:43:48;;;;;;;45.30;20.33;;;18.30;99.90;;;;;;4935066;29;20481;-82
2023/10/09 02:46:19;;;;;;;42.72;21.27;;;18.40;99.90;;;;;;4936251;29;20028;-82
2023/10/09 02:48:53;;;;;;;49.70;21.20;;;18.50;99.90;;;;;;4935958;29;20028;-82
2023/10/09 02:53:58;;;;;;;49.53;22.25;;;18.50;99.90;;;;;;4919657;29;20088;-83
2023/10/09 02:56:43;;;;;;;47.47;21.10;;;18.60;99.90;;;;;;4916093;29;20032;-82
2023/10/09 02:59:09;;;;;;;44.17;21.98;;;18.60;99.90;;;;;;4918831;29;20037;-82
2023/10/09 03:01:38;;;;;;;49.40;20.95;;;18.50;99.90;;;;;;4921595;29;20091;-82
2023/10/09 03:04:10;;;;;;;39.17;19.52;;;18.50;99.90;;;;;;4931990;29;20046;-84
2023/10/09 03:06:40;;;;;;;45.85;20.38;;;18.50;99.90;;;;;;4932421;29;20494;-84
2023/10/09 03:09:16;;;;;;;37.92;20.42;;;18.50;99.90;;;;;;4932180;29;20039;-83
2023/10/09 03:11:46;;;;;;;49.75;23.23;;;18.50;99.90;;;;;;4914790;29;20049;-81
2023/10/09 03:14:14;;;;;;;47.70;23.80;;;18.50;99.90;;;;;;4897927;29;20067;-80
2023/10/09 03:16:41;;;;;;;49.03;23.75;;;18.60;99.90;;;;;;4913053;29;20036;-80
2023/10/09 03:19:07;;;;;;;52.25;23.05;;;18.60;99.90;;;;;;4914220;29;20044;-80
2023/10/09 03:21:34;;;;;;;51.15;23.80;;;18.60;99.90;;;;;;4916139;29;20028;-80
2023/10/09 03:24:04;;;;;;;65.78;26.00;;;18.60;99.90;;;;;;4900323;29;20063;-82
2023/10/09 03:26:31;;;;;;;54.45;24.45;;;18.60;99.90;;;;;;4900286;29;20035;-82
2023/10/09 03:29:00;;;;;;;47.60;24.17;;;18.60;99.90;;;;;;4931796;29;20055;-82
2023/10/09 03:31:31;;;;;;;50.85;24.63;;;18.60;99.90;;;;;;4917139;29;20368;-82
2023/10/09 03:33:58;;;;;;;52.38;24.05;;;18.60;99.90;;;;;;4931680;29;20076;-82
2023/10/09 03:36:26;;;;;;;54.95;26.90;;;18.50;99.90;;;;;;4915896;29;20036;-82
2023/10/09 03:38:57;;;;;;;68.35;32.70;;;18.50;99.90;;;;;;4931763;29;20032;-83
2023/10/09 03:41:29;;;;;;;69.13;32.83;;;18.50;99.90;;;;;;4897114;29;20115;-81
2023/10/09 03:43:55;;;;;;;56.80;27.42;;;18.50;99.90;;;;;;4912627;29;20040;-82
2023/10/09 03:46:26;;;;;;;64.15;27.85;;;18.50;99.90;;;;;;4896937;29;20028;-81
2023/10/09 03:48:56;;;;;;;63.55;29.23;;;18.50;99.90;;;;;;4912740;29;20036;-81
2023/10/09 03:51:23;;;;;;;72.28;29.73;;;18.50;99.90;;;;;;4928673;29;20024;-81
2023/10/09 03:53:51;;;;;;;64.43;30.17;;;18.50;99.90;;;;;;4896921;29;20064;-83
2023/10/09 03:56:21;;;;;;;63.80;30.95;;;18.60;99.90;;;;;;4896932;29;20539;-82
2023/10/09 03:58:54;;;;;;;77.50;31.77;;;18.60;99.90;;;;;;4896806;29;20039;-81
2023/10/09 04:04:00;;;;;;;66.45;32.33;;;18.50;99.90;;;;;;4916794;29;20119;-80
2023/10/09 04:06:34;;;;;;;70.82;37.10;;;18.50;99.90;;;;;;4931476;29;20100;-81
2023/10/09 04:14:57;;;;;;;82.20;38.70;;;18.40;99.90;;;;;;4931132;29;20036;-81
2023/10/09 04:22:51;;;;;;;76.65;35.42;;;18.30;99.90;;;;;;4934090;29;20500;-81
2023/10/09 04:25:25;;;;;;;71.55;35.20;;;18.20;99.90;;;;;;4918506;29;20166;-81
2023/10/09 04:30:53;;;;;;;71.22;30.00;;;18.20;99.90;;;;;;4932550;29;20131;-84
2023/10/09 04:36:22;;;;;;;69.10;28.77;;;18.20;99.90;;;;;;4935730;29;20490;-84
2023/10/09 04:38:55;;;;;;;66.10;29.98;;;18.20;99.90;;;;;;4904821;29;20056;-84
2023/10/09 04:41:32;;;;;;;67.47;29.63;;;18.20;99.90;;;;;;4936556;29;20036;-86
2023/10/09 04:45:06;;;;;;;62.33;28.77;;;18.10;99.90;;;;;;4920338;29;20070;-85
2023/10/09 04:50:02;;;;;;;74.40;33.00;;;18.10;99.90;;;;;;4920274;29;20032;-86
2023/10/09 04:57:38;;;;;;;76.28;32.83;;;18.30;99.90;;;;;;4935541;29;20090;-84
2023/10/09 05:02:58;;;;;;;65.43;32.28;;;18.40;99.90;;;;;;4920380;29;20047;-83
2023/10/09 05:16:33;;;;;;;77.18;34.22;;;18.70;99.90;;;;;;4919477;29;20031;-85
2023/10/09 05:18:59;;;;;;;82.00;35.92;;;18.80;99.90;;;;;;4903545;29;20455;-85
2023/10/09 05:21:47;;;;;;;85.18;36.42;;;19.00;99.90;;;;;;4915849;29;20036;-85
2023/10/09 05:32:48;;;;;;;80.35;36.00;;;19.50;99.90;;;;;;4918900;29;20646;-81
2023/10/09 05:35:15;;;;;;;87.68;36.13;;;19.60;99.90;;;;;;4921279;29;20498;-85
2023/10/09 05:37:34;;;;;;;78.85;36.05;;;19.80;99.90;;;;;;4919278;29;20051;-84
2023/10/09 05:50:34;;;;;;;80.72;35.17;;;20.30;99.90;;;;;;4919670;29;20040;-85
2023/10/09 06:02:16;;;;;;;70.82;33.78;;;21.60;99.90;;;;;;4920679;29;20119;-91
2023/10/09 06:04:04;;;;;;;72.22;34.25;;;21.90;99.90;;;;;;4918849;29;20047;-88
2023/10/09 06:06:33;;;;;;;68.35;31.98;;;22.00;99.90;;;;;;4920219;29;20068;-90
2023/10/09 06:11:49;;;;;;;62.88;33.95;;;22.30;99.90;;;;;;4919709;29;20036;-89
2023/10/09 06:14:25;;;;;;;64.70;34.50;;;22.60;99.90;;;;;;4920020;29;20115;-87
2023/10/09 06:19:28;;;;;;;66.47;35.72;;;23.10;99.90;;;;;;4918871;29;20516;-87
2023/10/09 06:24:54;;;;;;;63.13;36.50;;;23.30;99.90;;;;;;4919641;29;20076;-86
2023/10/09 06:33:57;;;;;;;67.03;36.67;;;23.20;99.90;;;;;;4936022;29;20028;-88
2023/10/09 06:35:35;;;;;;;67.60;38.08;;;23.30;99.90;;;;;;4919986;29;20054;-88
2023/10/09 06:43:07;;;;;;;50.53;32.35;;;23.70;99.90;;;;;;4936728;29;20040;-88
2023/10/09 06:45:45;;;;;;;62.17;33.90;;;23.80;99.90;;;;;;4935296;29;20509;-87
2023/10/09 06:57:12;;;;;;;57.08;33.72;;;24.00;99.90;;;;;;4935845;29;20538;-83
2023/10/09 06:59:24;;;;;;;54.28;32.25;;;24.10;99.90;;;;;;4922027;29;20435;-84
2023/10/09 07:02:25;;;;;;;54.17;33.00;;;24.00;99.90;;;;;;4898220;29;20105;-85
2023/10/09 07:07:16;;;;;;;52.72;34.45;;;24.40;99.90;;;;;;4913919;29;20443;-84
2023/10/09 07:10:28;;;;;;;57.35;31.90;;;24.30;99.90;;;;;;4911087;29;20035;-83
2023/10/09 07:12:42;;;;;;;56.47;33.70;;;24.50;99.90;;;;;;4916500;29;20476;-82
2023/10/09 07:18:18;;;;;;;47.28;32.22;;;24.60;99.90;;;;;;4897979;29;20040;-84
2023/10/09 07:20:58;;;;;;;51.83;33.58;;;24.80;99.90;;;;;;4908854;29;20090;-83
2023/10/09 07:23:32;;;;;;;51.03;33.45;;;25.20;99.90;;;;;;4901193;29;20036;-83
2023/10/09 07:26:23;;;;;;;52.58;35.20;;;25.30;99.90;;;;;;4917161;29;20028;-83
2023/10/09 07:28:50;;;;;;;54.00;35.90;;;25.40;99.90;;;;;;4916629;29;20095;-82
2023/10/09 07:31:39;;;;;;;90.60;36.70;;;25.50;99.90;;;;;;4913425;29;20032;-84
2023/10/09 07:34:30;;;;;;;50.53;33.83;;;25.70;99.90;;;;;;4908189;29;20048;-84
2023/10/09 07:37:03;;;;;;;46.95;34.25;;;25.60;99.90;;;;;;4900661;29;20029;-85
2023/10/09 07:39:34;;;;;;;49.33;33.13;;;25.60;99.90;;;;;;4882907;29;20060;-84
2023/10/09 07:42:33;;;;;;;50.67;32.78;;;25.50;99.90;;;;;;4900850;29;20032;-85
2023/10/09 07:45:13;;;;;;;44.42;31.63;;;25.00;99.90;;;;;;4900387;29;20044;-82
2023/10/09 07:50:48;;;;;;;50.15;33.10;;;25.60;99.90;;;;;;4910245;29;20056;-83
2023/10/09 07:53:26;;;;;;;47.00;30.88;;;25.10;99.90;;;;;;4916344;29;20036;-83
2023/10/09 07:56:06;;;;;;;44.53;32.53;;;25.30;99.90;;;;;;4916244;29;20028;-83
2023/10/09 07:58:45;;;;;;;41.78;31.63;;;25.60;99.90;;;;;;4932042;29;20087;-84
2023/10/09 08:01:16;;;;;;;46.67;30.80;;;25.50;99.90;;;;;;4931695;29;20076;-83
2023/10/09 08:03:56;;;;;;;44.72;30.30;;;25.50;99.90;;;;;;4911120;29;20043;-84
2023/10/09 08:06:44;;;;;;;41.70;30.27;;;25.50;99.90;;;;;;4897176;29;20037;-83
2023/10/09 08:20:11;;;;;;;40.50;29.55;;;26.10;99.90;;;;;;4916355;29;20040;-84
2023/10/09 08:22:50;;;;;;;35.13;27.85;;;26.00;99.90;;;;;;4900183;29;20032;-81
2023/10/09 08:25:26;;;;;;;36.17;27.60;;;26.10;99.90;;;;;;4899718;29;20044;-82
2023/10/09 08:28:46;;;;;;;33.10;27.35;;;26.00;99.90;;;;;;4915779;29;20028;-83
2023/10/09 08:36:07;;;;;;;38.92;27.23;;;25.90;99.90;;;;;;4896538;29;20524;-83
2023/10/09 08:38:36;;;;;;;40.03;27.52;;;25.40;99.90;;;;;;4880960;29;20029;-81
2023/10/09 08:41:17;;;;;;;35.42;28.42;;;25.40;99.90;;;;;;4924369;29;20149;-83
2023/10/09 08:43:50;;;;;;;33.40;28.38;;;25.50;99.90;;;;;;4898968;29;20409;-82
2023/10/09 08:46:23;;;;;;;33.03;28.95;;;25.80;99.90;;;;;;4914752;29;20039;-84
2023/10/09 08:48:50;;;;;;;36.22;29.50;;;25.70;99.90;;;;;;4899404;29;20442;-81
2023/10/09 08:51:19;;;;;;;30.40;25.15;;;25.60;99.90;;;;;;4925809;29;20075;-81
2023/10/09 08:53:48;;;;;;;28.73;25.45;;;25.80;99.90;;;;;;4916024;29;20028;-81
2023/10/09 08:56:22;;;;;;;28.85;25.55;;;26.00;99.90;;;;;;4914766;29;20423;-83
2023/10/09 08:58:59;;;;;;;30.70;27.23;;;26.10;99.90;;;;;;4908702;29;20032;-82
2023/10/09 09:01:31;;;;;;;29.88;26.63;;;26.10;99.90;;;;;;4899355;29;20028;-81
2023/10/09 09:04:00;;;;;;;29.10;26.27;;;25.90;99.90;;;;;;4913256;29;20048;-81
2023/10/09 09:06:41;;;;;;;32.00;28.55;;;25.90;99.90;;;;;;4897238;29;20427;-83
2023/10/09 09:09:17;;;;;;;30.88;27.50;;;26.10;99.90;;;;;;4913814;29;20091;-82
2023/10/09 09:11:48;;;;;;;32.47;27.80;;;26.10;99.90;;;;;;4911267;29;20028;-83
2023/10/09 09:14:21;;;;;;;30.13;26.92;;;26.20;99.90;;;;;;4899265;29;20040;-82
2023/10/09 09:16:49;;;;;;;31.95;27.60;;;26.30;99.90;;;;;;4916130;29;20111;-83
2023/10/09 09:19:20;;;;;;;29.50;26.83;;;26.20;99.90;;;;;;4918557;29;20115;-82
2023/10/09 09:21:59;;;;;;;30.08;27.25;;;26.20;99.90;;;;;;4899699;29;20024;-83
2023/10/09 09:24:30;;;;;;;31.95;27.83;;;26.40;99.90;;;;;;4900762;29;20120;-82
2023/10/09 09:27:31;;;;;;;30.75;27.65;;;26.30;99.90;;;;;;4900884;29;20033;-82
2023/10/09 09:30:07;;;;;;;30.35;27.40;;;26.20;99.90;;;;;;4907189;29;20024;-82
2023/10/09 09:32:36;;;;;;;36.90;28.55;;;26.40;99.90;;;;;;4919656;29;20048;-82
2023/10/09 09:35:05;;;;;;;30.25;27.25;;;26.50;99.90;;;;;;4918072;29;20075;-82
2023/10/09 09:38:02;;;;;;;32.55;27.10;;;26.30;99.90;;;;;;4919661;29;20104;-83
2023/10/09 09:40:32;;;;;;;30.88;28.05;;;26.40;99.90;;;;;;4919193;29;20025;-82
2023/10/09 09:43:21;;;;;;;31.15;27.67;;;26.60;99.90;;;;;;4918064;29;20032;-82
2023/10/09 09:45:52;;;;;;;31.05;27.92;;;26.80;99.90;;;;;;4920578;29;20048;-83
2023/10/09 09:48:19;;;;;;;32.70;29.42;;;26.80;99.90;;;;;;4919547;29;20028;-82
2023/10/09 09:50:54;;;;;;;32.38;28.90;;;26.90;99.90;;;;;;4923837;29;20032;-83
2023/10/09 09:53:23;;;;;;;30.85;27.73;;;26.80;99.90;;;;;;4933955;29;20115;-83
2023/10/09 09:55:55;;;;;;;34.33;29.45;;;26.70;99.90;;;;;;4919377;29;20058;-84
2023/10/09 09:58:23;;;;;;;31.67;28.15;;;26.60;99.90;;;;;;4933962;29;20032;-82
2023/10/09 10:00:55;;;;;;;31.13;28.00;;;26.70;99.90;;;;;;4914721;29;20028;-83
2023/10/09 10:03:34;;;;;;;31.60;28.80;;;26.90;99.90;;;;;;4914657;29;20070;-84
2023/10/09 10:06:09;;;;;;;31.33;28.65;;;27.00;99.90;;;;;;4898933;29;20041;-82
2023/10/09 10:08:39;;;;;;;31.20;28.40;;;27.00;99.90;;;;;;4914729;29;20025;-83
2023/10/09 10:11:28;;;;;;;31.27;28.30;;;27.00;99.90;;;;;;4917545;29;20035;-83
2023/10/09 10:14:01;;;;;;;30.85;28.10;;;26.80;99.90;;;;;;4901692;29;20032;-83
2023/10/09 10:16:34;;;;;;;31.83;28.60;;;27.00;99.90;;;;;;4918867;29;20035;-82
2023/10/09 10:19:07;;;;;;;30.00;27.40;;;27.10;99.90;;;;;;4917376;29;20024;-82
2023/10/09 10:21:48;;;;;;;31.63;28.55;;;26.80;99.90;;;;;;4914646;29;20127;-81
2023/10/09 10:24:30;;;;;;;31.75;28.85;;;26.70;99.90;;;;;;4918676;29;20490;-82
2023/10/09 10:27:44;;;;;;;30.70;27.90;;;26.90;99.90;;;;;;4933370;29;20394;-83
2023/10/09 10:30:33;;;;;;;30.52;27.60;;;27.10;99.90;;;;;;4917062;29;20095;-83
2023/10/09 10:33:15;;;;;;;32.05;28.92;;;27.20;99.90;;;;;;4917540;29;20232;-81
2023/10/09 10:35:46;;;;;;;31.00;28.48;;;27.20;99.90;;;;;;4917127;29;20110;-80
2023/10/09 10:38:36;;;;;;;31.55;28.55;;;27.00;99.90;;;;;;4917221;29;20446;-79
2023/10/09 10:41:17;;;;;;;31.88;28.50;;;27.30;99.90;;;;;;4932903;29;20036;-80
2023/10/09 10:43:54;;;;;;;30.10;27.40;;;27.20;99.90;;;;;;4901437;29;20051;-83
2023/10/09 10:46:30;;;;;;;30.98;28.15;;;27.20;99.90;;;;;;4901471;29;20056;-83
2023/10/09 10:49:23;;;;;;;30.90;27.77;;;27.50;99.90;;;;;;4901181;29;20401;-81
2023/10/09 10:52:35;;;;;;;31.98;28.95;;;27.50;99.90;;;;;;4913547;29;20033;-82
2023/10/09 10:57:19;;;;;;;31.95;29.27;;;27.30;99.90;;;;;;4920024;29;20496;-82
2023/10/09 10:59:49;;;;;;;33.40;30.55;;;27.40;99.90;;;;;;4882396;29;20536;-82
2023/10/09 11:02:27;;;;;;;33.53;30.27;;;27.60;99.90;;;;;;4932504;29;20494;-82
2023/10/09 11:04:55;;;;;;;34.22;30.98;;;27.60;99.90;;;;;;4904651;29;20040;-83
2023/10/09 11:12:44;;;;;;;35.13;31.63;;;27.60;99.90;;;;;;4932308;29;20422;-83
2023/10/09 11:18:17;;;;;;;35.85;32.45;;;28.00;99.90;;;;;;4932270;29;20107;-81
2023/10/09 11:26:28;;;;;;;36.05;32.35;;;27.90;99.90;;;;;;4931351;29;20506;-82
2023/10/09 11:30:21;;;;;;;36.33;32.78;;;27.70;99.90;;;;;;4900571;29;20028;-81
2023/10/09 11:32:22;;;;;;;36.05;32.35;;;27.80;99.90;;;;;;4912974;29;20448;-83
2023/10/09 11:34:54;;;;;;;35.97;32.85;;;28.00;99.90;;;;;;4897014;29;20044;-82
2023/10/09 11:40:00;;;;;;;35.15;31.90;;;27.90;99.90;;;;;;4913500;29;20124;-81
2023/10/09 11:42:38;;;;;;;35.33;32.20;;;27.90;99.90;;;;;;4931896;29;20445;-81
2023/10/09 11:45:20;;;;;;;36.53;32.85;;;27.90;99.90;;;;;;4931726;29;20390;-81
2023/10/09 11:50:56;;;;;;;34.95;32.15;;;28.10;99.90;;;;;;4931077;29;20040;-79
2023/10/09 11:55:53;;;;;;;35.63;32.67;;;28.00;99.90;;;;;;4917183;29;20033;-80
2023/10/09 11:58:22;;;;;;;36.95;33.80;;;27.80;99.90;;;;;;4931583;29;20442;-80
2023/10/09 12:01:17;;;;;;;37.00;34.10;;;27.80;99.90;;;;;;4919932;29;20035;-80
2023/10/09 12:03:49;;;;;;;36.33;33.35;;;28.00;99.90;;;;;;4917087;29;20051;-80
2023/10/09 12:06:24;;;;;;;37.45;34.33;;;28.10;99.90;;;;;;4915873;29;20036;-80
2023/10/09 12:08:53;;;;;;;37.63;34.53;;;27.90;99.90;;;;;;4931418;29;20390;-79
2023/10/09 12:11:28;;;;;;;38.13;34.55;;;27.90;99.90;;;;;;4916952;29;20076;-80
2023/10/09 12:13:57;;;;;;;38.47;35.58;;;27.90;99.90;;;;;;4915822;29;20082;-75
2023/10/09 12:16:32;;;;;;;39.45;36.22;;;27.90;99.90;;;;;;4917055;29;20024;-75
2023/10/09 12:19:09;;;;;;;38.55;35.25;;;27.80;99.90;;;;;;4916863;29;20029;-75
2023/10/09 12:21:36;;;;;;;37.40;34.67;;;27.70;99.90;;;;;;4916872;29;20115;-76
2023/10/09 12:24:11;;;;;;;37.25;33.95;;;27.70;99.90;;;;;;4916397;29;20037;-75
2023/10/09 12:26:40;;;;;;;37.15;33.90;;;27.80;99.90;;;;;;4916717;29;20028;-76
2023/10/09 12:29:10;;;;;;;36.58;33.65;;;27.90;99.90;;;;;;4915359;29;20035;-75
2023/10/09 12:31:38;;;;;;;36.72;33.90;;;27.80;99.90;;;;;;4916543;29;20055;-75
2023/10/09 12:34:05;;;;;;;36.92;34.20;;;27.80;99.90;;;;;;4915264;29;20035;-75
2023/10/09 12:36:37;;;;;;;36.35;33.65;;;27.80;99.90;;;;;;4915356;29;20474;-75
2023/10/09 12:39:05;;;;;;;36.22;33.10;;;27.70;99.90;;;;;;4916798;29;20043;-75
2023/10/09 12:41:41;;;;;;;36.20;33.05;;;27.60;99.90;;;;;;4916575;29;20080;-75
2023/10/09 12:44:14;;;;;;;35.42;32.45;;;27.50;99.90;;;;;;4915363;29;20099;-75
2023/10/09 12:46:53;;;;;;;36.67;33.47;;;27.30;99.90;;;;;;4916505;29;20451;-75
2023/10/09 12:49:26;;;;;;;37.08;33.38;;;27.30;99.90;;;;;;4915285;29;20409;-75
2023/10/09 12:51:54;;;;;;;37.67;34.38;;;27.10;99.90;;;;;;4917507;29;20435;-75
2023/10/09 12:54:30;;;;;;;37.85;34.65;;;27.20;99.90;;;;;;4920204;29;20035;-75
2023/10/09 12:56:59;;;;;;;37.70;34.65;;;27.30;99.90;;;;;;4920224;29;20032;-75
2023/10/09 12:59:25;;;;;;;36.50;33.75;;;27.40;99.90;;;;;;4920410;29;20028;-75
2023/10/09 13:02:05;;;;;;;37.30;34.38;;;27.50;99.90;;;;;;4908318;29;20029;-75
2023/10/09 13:04:34;;;;;;;37.85;34.70;;;27.30;99.90;;;;;;4899835;29;20052;-75
2023/10/09 13:07:04;;;;;;;37.50;34.42;;;27.20;99.90;;;;;;4901063;29;20428;-75
2023/10/09 13:09:35;;;;;;;37.10;34.38;;;27.20;99.90;;;;;;4901026;29;20033;-75
2023/10/09 13:12:03;;;;;;;38.42;35.20;;;27.20;99.90;;;;;;4916705;29;20028;-76
2023/10/09 13:14:34;;;;;;;37.65;34.75;;;27.20;99.90;;;;;;4919660;29;20088;-75
2023/10/09 13:17:09;;;;;;;38.10;34.95;;;27.00;99.90;;;;;;4900947;29;20052;-76
2023/10/09 13:19:36;;;;;;;36.92;34.03;;;27.00;99.90;;;;;;4899773;29;20028;-76
2023/10/09 13:22:12;;;;;;;38.78;35.42;;;27.20;99.90;;;;;;4913910;29;20028;-76
2023/10/09 13:24:41;;;;;;;36.92;33.97;;;27.30;99.90;;;;;;4919838;29;20052;-76
2023/10/09 13:27:09;;;;;;;37.67;34.83;;;27.20;99.90;;;;;;4918497;29;20031;-76
2023/10/09 13:29:41;;;;;;;36.60;33.90;;;27.10;99.90;;;;;;4919386;29;20031;-76
2023/10/09 13:32:20;;;;;;;37.63;34.45;;;27.30;99.90;;;;;;4919729;29;20564;-76
2023/10/09 13:34:49;;;;;;;37.50;34.05;;;27.20;99.90;;;;;;4917925;29;20131;-75
2023/10/09 13:37:21;;;;;;;36.22;33.03;;;27.10;99.90;;;;;;4919405;29;20040;-75
2023/10/09 13:39:56;;;;;;;37.15;33.72;;;27.00;99.90;;;;;;4934065;29;20438;-76
2023/10/09 13:42:26;;;;;;;37.15;33.67;;;27.10;99.90;;;;;;4919407;29;20151;-75
2023/10/09 13:44:56;;;;;;;36.58;33.40;;;27.10;99.90;;;;;;4918059;29;20043;-75
2023/10/09 13:47:29;;;;;;;36.03;33.08;;;26.90;99.90;;;;;;4903050;29;20028;-75
2023/10/09 13:49:57;;;;;;;36.90;33.63;;;26.90;99.90;;;;;;4919224;29;20537;-75
2023/10/09 13:52:23;;;;;;;37.20;33.97;;;26.90;99.90;;;;;;4918040;29;20127;-75
2023/10/09 13:54:50;;;;;;;38.08;34.75;;;26.90;99.90;;;;;;4919250;29;20036;-75
2023/10/09 13:57:17;;;;;;;37.13;34.05;;;26.90;99.90;;;;;;4919133;29;20103;-74
2023/10/09 13:59:49;;;;;;;36.88;33.63;;;26.90;99.90;;;;;;4919233;29;20045;-75
2023/10/09 14:02:18;;;;;;;35.20;32.47;;;27.00;99.90;;;;;;4914235;29;20032;-75
2023/10/09 14:04:47;;;;;;;36.30;32.67;;;27.00;99.90;;;;;;4900290;29;20111;-78
2023/10/09 14:07:16;;;;;;;35.50;32.20;;;26.90;99.90;;;;;;4900201;29;20077;-77
2023/10/09 14:12:14;;;;;;;33.97;31.25;;;26.80;99.90;;;;;;4915960;29;20088;-79
2023/10/09 14:14:48;;;;;;;35.03;31.67;;;26.70;99.90;;;;;;4917830;29;20032;-79
2023/10/09 14:17:25;;;;;;;34.22;31.02;;;26.70;99.90;;;;;;4902323;29;20035;-79
2023/10/09 14:19:54;;;;;;;34.13;31.30;;;26.60;99.90;;;;;;4917540;29;20031;-80
2023/10/09 14:22:26;;;;;;;34.78;31.25;;;26.50;99.90;;;;;;4914531;29;20471;-80
2023/10/09 14:24:55;;;;;;;33.92;30.58;;;26.40;99.90;;;;;;4898612;29;20040;-79
2023/10/09 14:27:29;;;;;;;34.95;31.70;;;26.40;99.90;;;;;;4900040;29;20368;-79
2023/10/09 14:30:01;;;;;;;33.78;31.08;;;26.50;99.90;;;;;;4899568;29;20471;-79
2023/10/09 14:32:33;;;;;;;34.78;31.77;;;26.50;99.90;;;;;;4918410;29;20029;-79
2023/10/09 14:35:12;;;;;;;35.08;31.33;;;26.50;99.90;;;;;;4932734;29;20085;-79
2023/10/09 14:37:41;;;;;;;34.22;31.38;;;26.50;99.90;;;;;;4917203;29;20028;-78
2023/10/09 14:40:12;;;;;;;36.13;31.50;;;26.40;99.90;;;;;;4918297;29;20027;-79
2023/10/09 14:42:44;;;;;;;34.00;30.92;;;26.30;99.90;;;;;;4899417;29;20080;-78
2023/10/09 14:45:15;;;;;;;33.17;30.08;;;26.30;99.90;;;;;;4913734;29;20051;-78
2023/10/09 14:47:43;;;;;;;33.47;30.35;;;26.30;99.90;;;;;;4899372;29;20028;-78
2023/10/09 14:50:09;;;;;;;32.85;30.17;;;26.30;99.90;;;;;;4898005;29;20033;-79
2023/10/09 14:52:38;;;;;;;35.13;31.67;;;26.20;99.90;;;;;;4916537;29;20035;-78
2023/10/09 14:55:07;;;;;;;32.63;30.05;;;26.00;99.90;;;;;;4916881;29;20503;-79
2023/10/09 14:57:34;;;;;;;33.45;30.65;;;26.00;99.90;;;;;;4932502;29;20498;-78
2023/10/09 15:00:07;;;;;;;35.20;31.50;;;25.90;99.90;;;;;;4916712;29;20024;-78
2023/10/09 15:02:34;;;;;;;33.67;30.92;;;25.90;99.90;;;;;;4917880;29;20107;-79
2023/10/09 15:05:04;;;;;;;34.47;31.52;;;25.90;99.90;;;;;;4917433;29;20056;-79
2023/10/09 15:07:30;;;;;;;34.90;31.67;;;25.80;99.90;;;;;;4906371;29;20036;-76
2023/10/09 15:10:03;;;;;;;34.67;31.25;;;25.80;99.90;;;;;;4906590;29;20020;-77
2023/10/09 15:12:31;;;;;;;33.58;30.73;;;25.70;99.90;;;;;;4917814;29;20024;-79
2023/10/09 15:14:58;;;;;;;33.40;30.50;;;25.60;99.90;;;;;;4899994;29;20513;-79
2023/10/09 15:17:25;;;;;;;33.78;30.92;;;25.60;99.90;;;;;;4932282;29;20486;-79
2023/10/09 15:19:56;;;;;;;34.83;31.83;;;25.50;99.90;;;;;;4932115;29;20031;-78
2023/10/09 15:22:28;;;;;;;34.17;31.33;;;25.50;99.90;;;;;;4918043;29;20136;-80
2023/10/09 15:24:59;;;;;;;34.88;32.00;;;25.60;99.90;;;;;;4916345;29;20051;-79
2023/10/09 15:27:28;;;;;;;34.97;32.08;;;25.50;99.90;;;;;;4932111;29;20028;-78
2023/10/09 15:29:55;;;;;;;34.88;31.90;;;25.50;99.90;;;;;;4917419;29;20371;-78
2023/10/09 15:32:23;;;;;;;35.90;32.67;;;25.40;99.90;;;;;;4917338;29;20422;-80
2023/10/09 15:34:59;;;;;;;35.17;32.28;;;25.40;99.90;;;;;;4917244;29;20439;-80
2023/10/09 15:37:26;;;;;;;34.88;31.88;;;25.30;99.90;;;;;;4916194;29;20502;-81
2023/10/09 15:39:53;;;;;;;35.83;32.58;;;25.30;99.90;;;;;;4917213;29;20028;-81
2023/10/09 15:42:20;;;;;;;36.50;33.20;;;25.20;99.90;;;;;;4915951;29;20036;-79
2023/10/09 15:44:47;;;;;;;35.92;32.63;;;25.10;99.90;;;;;;4917183;29;20040;-80
2023/10/09 15:47:15;;;;;;;35.92;32.20;;;25.00;99.90;;;;;;4900145;29;20438;-82
2023/10/09 15:49:43;;;;;;;35.45;32.55;;;25.00;99.90;;;;;;4916986;29;20095;-80
2023/10/09 15:52:13;;;;;;;37.92;34.17;;;24.90;99.90;;;;;;4915946;29;20445;-80
2023/10/09 15:54:42;;;;;;;44.30;36.17;;;24.80;99.90;;;;;;4915805;29;20454;-80
2023/10/09 15:57:10;;;;;;;37.88;34.38;;;24.70;99.90;;;;;;4900086;29;20024;-80
2023/10/09 15:59:39;;;;;;;38.63;34.60;;;24.70;99.90;;;;;;4915878;29;20422;-81